• Join FlightAware (Why Join?)
  • Login
  • US Flag 
Gobble Gobble! 
03:24AM EST


 

Airport Tracker/Info


-or-


 

Live Flight TrackerFlight Track Log ✈ PDT4451 ✈ 01-Jul-2013 ✈ KBOS - KSYR

Flight Track Log - Related Links

Times and Time Zones

All times are in EDT time to prevent confusion due to time zone crossing. See the PDT4451 flight status page for this flight to view local times or setup timezone preferences in your user account.

Time Position Orientation Groundspeed Altitude Reporting Facility
EDT Latitude Longitude Course Direction KTS MPH feet Rate Location/Type
03:22PM 42.3500 -71.0167 324° Northwest 119 137 700  Level KA90
03:22PM 42.3500 -71.0333 270° West 131 151 1,300 1,140 Climbing KA90
03:23PM 42.3500 -71.0833 270° West 144 166 2,500 1,200 Climbing KA90
03:24PM 42.3667 -71.1500 289° West 144 166 3,700 1,020 Climbing KA90
03:25PM 42.5298 -71.1149 340° North  Level FlightAware Approximate
03:25PM 42.3667 -71.2000 270° West 139 160 4,700  Level KA90
03:26PM 42.5919 -71.1485 336° Northwest  Level FlightAware Approximate
03:26PM 42.3833 -71.2667 289° West 160 184 5,100  Level KA90
03:27PM 42.6527 -71.1860 324° Northwest  Level FlightAware Approximate
03:27PM 42.3833 -71.3167 270° West 157 181 6,000  Level KA90
03:29PM 42.3667 -71.3833 251° West 150 173 7,000 840 Climbing KA90
03:30PM 42.3667 -71.4333 270° West 147 169 7,800 660 Climbing KA90
03:31PM 42.3569 -71.5100 260° West 143 165 8,700 600 Climbing Boston Center
03:32PM 42.3450 -71.5722 255° West 155 178 9,300 480 Climbing Boston Center
03:33PM 42.3453 -71.6283 270° West 161 185 9,700 480 Climbing Boston Center
03:34PM 42.3458 -71.6986 271° West 171 197 10,300 480 Climbing Boston Center
03:35PM 42.3400 -71.7603 263° West 176 203 10,700 420 Climbing Boston Center
03:36PM 42.3383 -71.8361 268° West 181 208 11,200 480 Climbing Boston Center
03:37PM 42.3428 -71.8981 276° West 181 208 11,700 480 Climbing Boston Center
03:38PM 42.3328 -71.9739 260° West 181 208 12,200 480 Climbing Boston Center
03:39PM 42.3267 -72.0358 262° West 181 208 12,700 480 Climbing Boston Center
03:40PM 42.3228 -72.1172 266° West 187 215 13,200 480 Climbing Boston Center
03:42PM 42.3211 -72.2631 269° West 198 228 14,200 480 Climbing Boston Center
03:43PM 42.3192 -72.3278 268° West 198 228 14,700 480 Climbing Boston Center
03:44PM 42.3128 -72.4092 264° West 198 228 15,200 420 Climbing Boston Center
03:45PM 42.3128 -72.4711 270° West 198 228 15,600 360 Climbing Boston Center
03:46PM 42.3086 -72.5525 266° West 198 228 16,000 180 Climbing Boston Center
03:47PM 42.3003 -72.6450 263° West 203 234 16,000  Level Boston Center
03:48PM 42.2981 -72.7264 268° West 208 239 16,000  Level Boston Center
03:49PM 42.2978 -72.8022 270° West 220 253 16,000  Level Boston Center
03:50PM 42.3161 -72.8894 286° West 225 259 16,000  Level Boston Center
03:51PM 42.3575 -72.9542 311° West 241 277 16,000  Level Boston Center
03:52PM 42.3906 -73.0361 299° West 247 284 16,000  Level Boston Center
03:53PM 42.4256 -73.1236 298° West 247 284 16,100  Climbing Boston Center
03:54PM 42.4606 -73.1886 306° West 247 284 16,100  Level Boston Center
03:55PM 42.4975 -73.2708 301° West 241 277 16,100  Level Boston Center
03:56PM 42.5281 -73.3389 301° West 235 270 16,100 -120 Level Boston Center
03:57PM 42.5692 -73.4156 306° West 230 265 15,900 -120 Descending Boston Center
03:58PM 42.6000 -73.4781 304° West 225 259 15,900  Level Boston Center
03:59PM 42.6222 -73.5378 297° West 219 252 16,000  Climbing Boston Center
04:00PM 42.6631 -73.6231 303° West 219 252 16,000  Level Boston Center
04:01PM 42.6997 -73.7031 302° West 229 264 16,000  Level Boston Center
04:02PM 42.7342 -73.7828 300° West 241 277 16,000  Level Boston Center
04:03PM 42.7644 -73.8625 297° West 241 277 16,000  Level Boston Center
04:04PM 42.7719 -73.9447 277° West 234 269 16,000  Level Boston Center
04:05PM 42.7872 -74.0300 284° West 229 264 16,000  Level Boston Center
04:06PM 42.8050 -74.1097 287° West 224 258 16,000  Level Boston Center
04:07PM 42.8164 -74.1864 281° West 224 258 16,000  Level Boston Center
04:08PM 42.8314 -74.2861 282° West 224 258 16,000  Level Boston Center
04:09PM 42.8486 -74.3772 287° West 229 264 16,000  Level Boston Center
04:10PM 42.8531 -74.3824 287° West  Level FlightAware Approximate
04:10PM 42.8597 -74.4539 281° West 229 264 16,000  Level Boston Center
04:11PM 42.8792 -74.5453 289° West 229 264 15,900 -120 Descending Boston Center
04:12PM 42.8906 -74.5457 289° West  Level FlightAware Approximate
04:12PM 42.8961 -74.6339 285° West 227 261 15,800  Level Boston Center
04:14PM 42.9108 -74.7278 282° West 220 253 15,200 -540 Descending Boston Center
04:14PM 42.9161 -74.7792 278° West 222 255 14,800 -720 Descending Boston Center
04:16PM 42.9367 -74.8906 284° West 219 252 13,800 -840 Descending Boston Center
04:16PM 42.9481 -74.9447 286° West 222 255 13,200 -840 Descending Boston Center
04:17PM 42.9628 -75.0333 283° West 228 262 12,300 -900 Descending Boston Center
04:18PM 42.9817 -75.1194 287° West 233 268 11,400 -960 Descending Boston Center
04:19PM 42.9942 -75.2081 281° West 238 274 10,400 -720 Descending Boston Center
04:20PM 43.0086 -75.2939 283° West 238 274 10,000 -300 Descending Boston Center
04:21PM 43.0231 -75.3881 282° West 238 274 9,900  Descending Boston Center
04:22PM 43.0350 -75.4797 280° West 238 274 10,000 -180 Climbing Boston Center
04:23PM 43.0453 -75.5683 279° West 238 274 9,600 -780 Descending Boston Center
04:24PM 43.0492 -75.6536 274° West 238 274 8,500 -1,020 Descending Boston Center
04:25PM 43.0403 -75.7442 262° West 238 274 7,600 -840 Descending Boston Center
04:26PM 43.0275 -75.8231 258° West 228 262 6,900 -780 Descending Boston Center
04:28PM 43.0092 -75.9469 259° West 218 251 5,800 -780 Descending Boston Center
04:29PM 42.9958 -76.0400 259° West 219 252 5,000 -600 Descending Boston Center
04:30PM 42.9850 -76.1189 259° West 207 238 4,600 -540 Descending Boston Center
04:31PM 42.9786 -76.1894 263° West 203 234 4,000 -360 Descending Boston Center
04:32PM 42.9633 -76.2681 255° West 211 243 4,000 -300 Level Boston Center
04:33PM 42.9503 -76.3467 257° West 217 250 3,400 -540 Descending Boston Center
04:34PM 42.9667 -76.4131 289° West 197 227 3,000 -240 Descending Boston Center
04:35PM 43.0181 -76.4333 344° North 185 213 3,000 -60 Level Boston Center
04:36PM 43.0714 -76.4625 338° Northwest 194 223 2,900 -300 Descending Boston Center
04:37PM 43.0961 -76.4128 56° Northeast 191 220 2,400 -300 Descending Boston Center
04:38PM 43.1006 -76.3419 85° East 179 206 2,400 -60 Level Boston Center
04:39PM 43.1028 -76.2794 87° East 177 204 2,300 -120 Descending Boston Center